sensor_id;sensor_type;location;lat;lon;timestamp;P1;durP1;ratioP1;P2;durP2;ratioP2
28862;SDS011;15994;51.796;13.006;2022-08-19T00:01:33;29.27;;;20.30;;
28862;SDS011;15994;51.796;13.006;2022-08-19T00:04:02;39.67;;;21.13;;
28862;SDS011;15994;51.796;13.006;2022-08-19T00:06:31;37.25;;;19.75;;
28862;SDS011;15994;51.796;13.006;2022-08-19T00:08:58;23.05;;;20.25;;
28862;SDS011;15994;51.796;13.006;2022-08-19T00:11:25;23.10;;;20.80;;
28862;SDS011;15994;51.796;13.006;2022-08-19T00:13:53;48.33;;;22.55;;
28862;SDS011;15994;51.796;13.006;2022-08-19T00:16:21;28.13;;;21.13;;
28862;SDS011;15994;51.796;13.006;2022-08-19T00:18:48;30.80;;;20.83;;
28862;SDS011;15994;51.796;13.006;2022-08-19T00:21:15;32.22;;;22.33;;
28862;SDS011;15994;51.796;13.006;2022-08-19T00:23:42;81.18;;;23.38;;
28862;SDS011;15994;51.796;13.006;2022-08-19T00:26:09;43.60;;;22.95;;
28862;SDS011;15994;51.796;13.006;2022-08-19T00:28:36;26.30;;;23.42;;
28862;SDS011;15994;51.796;13.006;2022-08-19T00:31:03;26.17;;;22.50;;
28862;SDS011;15994;51.796;13.006;2022-08-19T00:33:32;30.48;;;23.08;;
28862;SDS011;15994;51.796;13.006;2022-08-19T00:35:59;59.97;;;24.52;;
28862;SDS011;15994;51.796;13.006;2022-08-19T00:38:26;28.67;;;22.77;;
28862;SDS011;15994;51.796;13.006;2022-08-19T00:40:53;26.02;;;22.77;;
28862;SDS011;15994;51.796;13.006;2022-08-19T00:43:21;27.25;;;24.15;;
28862;SDS011;15994;51.796;13.006;2022-08-19T00:45:50;42.30;;;23.67;;
28862;SDS011;15994;51.796;13.006;2022-08-19T00:48:17;48.38;;;22.90;;
28862;SDS011;15994;51.796;13.006;2022-08-19T00:50:45;26.20;;;22.35;;
28862;SDS011;15994;51.796;13.006;2022-08-19T00:53:14;25.48;;;22.83;;
28862;SDS011;15994;51.796;13.006;2022-08-19T00:55:47;24.15;;;21.77;;
28862;SDS011;15994;51.796;13.006;2022-08-19T00:58:16;21.42;;;19.20;;
28862;SDS011;15994;51.796;13.006;2022-08-19T01:00:45;23.55;;;21.05;;
28862;SDS011;15994;51.796;13.006;2022-08-19T01:03:18;22.17;;;19.73;;
28862;SDS011;15994;51.796;13.006;2022-08-19T01:05:45;23.35;;;20.85;;
28862;SDS011;15994;51.796;13.006;2022-08-19T01:08:14;24.80;;;22.38;;
28862;SDS011;15994;51.796;13.006;2022-08-19T01:10:43;23.98;;;21.58;;
28862;SDS011;15994;51.796;13.006;2022-08-19T01:13:14;30.60;;;21.85;;
28862;SDS011;15994;51.796;13.006;2022-08-19T01:15:44;25.63;;;22.73;;
28862;SDS011;15994;51.796;13.006;2022-08-19T01:18:15;24.67;;;21.42;;
28862;SDS011;15994;51.796;13.006;2022-08-19T01:20:43;21.77;;;19.42;;
28862;SDS011;15994;51.796;13.006;2022-08-19T01:23:10;18.08;;;16.30;;
28862;SDS011;15994;51.796;13.006;2022-08-19T01:25:42;16.90;;;15.20;;
28862;SDS011;15994;51.796;13.006;2022-08-19T01:28:18;16.10;;;14.60;;
28862;SDS011;15994;51.796;13.006;2022-08-19T01:30:50;18.38;;;14.23;;
28862;SDS011;15994;51.796;13.006;2022-08-19T01:33:17;14.70;;;12.90;;
28862;SDS011;15994;51.796;13.006;2022-08-19T01:35:44;14.13;;;12.73;;
28862;SDS011;15994;51.796;13.006;2022-08-19T01:38:19;13.43;;;11.95;;
28862;SDS011;15994;51.796;13.006;2022-08-19T01:40:48;14.43;;;12.98;;
28862;SDS011;15994;51.796;13.006;2022-08-19T01:43:15;15.60;;;13.93;;
28862;SDS011;15994;51.796;13.006;2022-08-19T01:45:43;15.80;;;14.30;;
28862;SDS011;15994;51.796;13.006;2022-08-19T01:48:11;17.15;;;15.35;;
28862;SDS011;15994;51.796;13.006;2022-08-19T01:50:39;18.73;;;16.77;;
28862;SDS011;15994;51.796;13.006;2022-08-19T01:53:07;18.13;;;16.15;;
28862;SDS011;15994;51.796;13.006;2022-08-19T01:55:37;18.67;;;16.88;;
28862;SDS011;15994;51.796;13.006;2022-08-19T01:58:14;20.05;;;18.00;;
28862;SDS011;15994;51.796;13.006;2022-08-19T02:00:46;19.02;;;16.92;;
28862;SDS011;15994;51.796;13.006;2022-08-19T02:03:13;18.92;;;17.00;;
28862;SDS011;15994;51.796;13.006;2022-08-19T02:05:42;19.17;;;17.25;;
28862;SDS011;15994;51.796;13.006;2022-08-19T02:08:10;18.85;;;17.05;;
28862;SDS011;15994;51.796;13.006;2022-08-19T02:10:38;19.40;;;17.40;;
28862;SDS011;15994;51.796;13.006;2022-08-19T02:13:07;19.15;;;17.23;;
28862;SDS011;15994;51.796;13.006;2022-08-19T02:15:33;19.83;;;17.83;;
28862;SDS011;15994;51.796;13.006;2022-08-19T02:18:00;19.50;;;17.58;;
28862;SDS011;15994;51.796;13.006;2022-08-19T02:20:26;18.35;;;16.45;;
28862;SDS011;15994;51.796;13.006;2022-08-19T02:22:53;19.00;;;17.00;;
28862;SDS011;15994;51.796;13.006;2022-08-19T02:25:20;20.33;;;18.30;;
28862;SDS011;15994;51.796;13.006;2022-08-19T02:27:46;20.80;;;18.63;;
28862;SDS011;15994;51.796;13.006;2022-08-19T02:30:15;19.13;;;17.23;;
28862;SDS011;15994;51.796;13.006;2022-08-19T02:32:42;18.73;;;16.85;;
28862;SDS011;15994;51.796;13.006;2022-08-19T02:35:09;19.17;;;17.17;;
28862;SDS011;15994;51.796;13.006;2022-08-19T02:37:36;18.40;;;16.50;;
28862;SDS011;15994;51.796;13.006;2022-08-19T02:40:20;18.25;;;16.10;;
28862;SDS011;15994;51.796;13.006;2022-08-19T02:42:47;18.60;;;16.67;;
28862;SDS011;15994;51.796;13.006;2022-08-19T02:45:13;17.60;;;15.90;;
28862;SDS011;15994;51.796;13.006;2022-08-19T02:47:40;19.15;;;16.98;;
28862;SDS011;15994;51.796;13.006;2022-08-19T02:50:07;18.67;;;16.88;;
28862;SDS011;15994;51.796;13.006;2022-08-19T02:52:34;18.42;;;16.67;;
28862;SDS011;15994;51.796;13.006;2022-08-19T02:55:01;17.92;;;16.30;;
28862;SDS011;15994;51.796;13.006;2022-08-19T02:57:29;18.67;;;16.80;;
28862;SDS011;15994;51.796;13.006;2022-08-19T02:59:57;18.88;;;17.02;;
28862;SDS011;15994;51.796;13.006;2022-08-19T03:02:24;19.02;;;17.13;;
28862;SDS011;15994;51.796;13.006;2022-08-19T03:04:51;19.30;;;17.33;;
28862;SDS011;15994;51.796;13.006;2022-08-19T03:07:17;18.77;;;16.98;;
28862;SDS011;15994;51.796;13.006;2022-08-19T03:09:44;19.00;;;17.23;;
28862;SDS011;15994;51.796;13.006;2022-08-19T03:12:11;17.58;;;15.90;;
28862;SDS011;15994;51.796;13.006;2022-08-19T03:14:37;17.90;;;16.15;;
28862;SDS011;15994;51.796;13.006;2022-08-19T03:17:04;17.40;;;15.60;;
28862;SDS011;15994;51.796;13.006;2022-08-19T03:19:31;17.27;;;15.68;;
28862;SDS011;15994;51.796;13.006;2022-08-19T03:21:57;17.60;;;15.77;;
28862;SDS011;15994;51.796;13.006;2022-08-19T03:24:24;16.65;;;15.07;;
28862;SDS011;15994;51.796;13.006;2022-08-19T03:26:52;16.65;;;15.05;;
28862;SDS011;15994;51.796;13.006;2022-08-19T03:29:22;16.67;;;14.98;;
28862;SDS011;15994;51.796;13.006;2022-08-19T03:31:49;17.38;;;15.68;;
28862;SDS011;15994;51.796;13.006;2022-08-19T03:34:18;16.40;;;14.68;;
28862;SDS011;15994;51.796;13.006;2022-08-19T03:36:54;16.88;;;15.27;;
28862;SDS011;15994;51.796;13.006;2022-08-19T03:39:22;16.80;;;15.10;;
28862;SDS011;15994;51.796;13.006;2022-08-19T03:41:51;16.10;;;14.45;;
28862;SDS011;15994;51.796;13.006;2022-08-19T03:44:21;17.27;;;15.50;;
28862;SDS011;15994;51.796;13.006;2022-08-19T03:46:51;16.90;;;15.10;;
28862;SDS011;15994;51.796;13.006;2022-08-19T03:49:20;16.75;;;14.80;;
28862;SDS011;15994;51.796;13.006;2022-08-19T03:51:48;16.48;;;14.82;;
28862;SDS011;15994;51.796;13.006;2022-08-19T03:54:20;16.58;;;14.88;;
28862;SDS011;15994;51.796;13.006;2022-08-19T03:56:49;16.73;;;15.02;;
28862;SDS011;15994;51.796;13.006;2022-08-19T03:59:28;16.38;;;14.70;;
28862;SDS011;15994;51.796;13.006;2022-08-19T04:01:57;16.25;;;14.75;;
28862;SDS011;15994;51.796;13.006;2022-08-19T04:04:25;15.80;;;14.32;;
28862;SDS011;15994;51.796;13.006;2022-08-19T04:06:52;16.85;;;15.25;;
28862;SDS011;15994;51.796;13.006;2022-08-19T04:09:19;16.45;;;14.85;;
28862;SDS011;15994;51.796;13.006;2022-08-19T04:11:48;17.77;;;15.70;;
28862;SDS011;15994;51.796;13.006;2022-08-19T04:14:19;19.08;;;16.20;;
28862;SDS011;15994;51.796;13.006;2022-08-19T04:16:47;17.27;;;15.57;;
28862;SDS011;15994;51.796;13.006;2022-08-19T04:19:14;18.08;;;16.17;;
28862;SDS011;15994;51.796;13.006;2022-08-19T04:21:43;18.27;;;16.55;;
28862;SDS011;15994;51.796;13.006;2022-08-19T04:24:12;18.60;;;15.90;;
28862;SDS011;15994;51.796;13.006;2022-08-19T04:26:39;17.45;;;15.85;;
28862;SDS011;15994;51.796;13.006;2022-08-19T04:29:11;18.65;;;16.80;;
28862;SDS011;15994;51.796;13.006;2022-08-19T04:31:40;18.95;;;17.13;;
28862;SDS011;15994;51.796;13.006;2022-08-19T04:34:09;19.95;;;17.92;;
28862;SDS011;15994;51.796;13.006;2022-08-19T04:36:39;20.85;;;18.75;;
28862;SDS011;15994;51.796;13.006;2022-08-19T04:39:08;20.23;;;18.15;;
28862;SDS011;15994;51.796;13.006;2022-08-19T04:41:40;18.73;;;16.85;;
28862;SDS011;15994;51.796;13.006;2022-08-19T04:44:25;23.02;;;18.30;;
28862;SDS011;15994;51.796;13.006;2022-08-19T04:46:55;19.85;;;17.85;;
28862;SDS011;15994;51.796;13.006;2022-08-19T04:49:22;19.38;;;17.58;;
28862;SDS011;15994;51.796;13.006;2022-08-19T04:51:51;20.70;;;18.23;;
28862;SDS011;15994;51.796;13.006;2022-08-19T04:54:20;20.92;;;18.88;;
28862;SDS011;15994;51.796;13.006;2022-08-19T04:56:50;19.58;;;17.55;;
28862;SDS011;15994;51.796;13.006;2022-08-19T04:59:18;20.15;;;18.20;;
28862;SDS011;15994;51.796;13.006;2022-08-19T05:01:45;20.10;;;18.20;;
28862;SDS011;15994;51.796;13.006;2022-08-19T05:04:14;20.75;;;18.83;;
28862;SDS011;15994;51.796;13.006;2022-08-19T05:06:42;20.95;;;18.85;;
28862;SDS011;15994;51.796;13.006;2022-08-19T05:09:08;20.67;;;18.38;;
28862;SDS011;15994;51.796;13.006;2022-08-19T05:11:35;22.35;;;19.15;;
28862;SDS011;15994;51.796;13.006;2022-08-19T05:14:03;22.35;;;20.13;;
28862;SDS011;15994;51.796;13.006;2022-08-19T05:16:30;21.45;;;19.17;;
28862;SDS011;15994;51.796;13.006;2022-08-19T05:18:57;21.00;;;18.95;;
28862;SDS011;15994;51.796;13.006;2022-08-19T05:21:41;20.60;;;18.65;;
28862;SDS011;15994;51.796;13.006;2022-08-19T05:24:26;21.58;;;19.50;;
28862;SDS011;15994;51.796;13.006;2022-08-19T05:26:53;21.65;;;19.65;;
28862;SDS011;15994;51.796;13.006;2022-08-19T05:29:23;21.50;;;19.33;;
28862;SDS011;15994;51.796;13.006;2022-08-19T05:31:52;20.45;;;18.55;;
28862;SDS011;15994;51.796;13.006;2022-08-19T05:34:21;19.70;;;17.90;;
28862;SDS011;15994;51.796;13.006;2022-08-19T05:36:49;22.55;;;18.95;;
28862;SDS011;15994;51.796;13.006;2022-08-19T05:39:21;21.75;;;19.63;;
28862;SDS011;15994;51.796;13.006;2022-08-19T05:41:50;20.52;;;18.58;;
28862;SDS011;15994;51.796;13.006;2022-08-19T05:44:21;20.77;;;18.88;;
28862;SDS011;15994;51.796;13.006;2022-08-19T05:46:49;21.05;;;18.92;;
28862;SDS011;15994;51.796;13.006;2022-08-19T05:49:17;21.75;;;19.55;;
28862;SDS011;15994;51.796;13.006;2022-08-19T05:51:46;23.02;;;19.90;;
28862;SDS011;15994;51.796;13.006;2022-08-19T05:54:12;21.08;;;19.13;;
28862;SDS011;15994;51.796;13.006;2022-08-19T05:56:40;20.80;;;18.63;;
28862;SDS011;15994;51.796;13.006;2022-08-19T05:59:07;20.88;;;18.88;;
28862;SDS011;15994;51.796;13.006;2022-08-19T06:01:37;21.77;;;19.80;;
28862;SDS011;15994;51.796;13.006;2022-08-19T06:04:05;21.48;;;19.42;;
28862;SDS011;15994;51.796;13.006;2022-08-19T06:06:33;21.13;;;19.13;;
28862;SDS011;15994;51.796;13.006;2022-08-19T06:09:00;21.70;;;19.38;;
28862;SDS011;15994;51.796;13.006;2022-08-19T06:11:35;20.50;;;18.58;;
28862;SDS011;15994;51.796;13.006;2022-08-19T06:14:05;22.05;;;19.85;;
28862;SDS011;15994;51.796;13.006;2022-08-19T06:16:34;19.40;;;17.52;;
28862;SDS011;15994;51.796;13.006;2022-08-19T06:19:04;20.75;;;18.63;;
28862;SDS011;15994;51.796;13.006;2022-08-19T06:21:33;19.80;;;17.80;;
28862;SDS011;15994;51.796;13.006;2022-08-19T06:24:03;19.23;;;17.23;;
28862;SDS011;15994;51.796;13.006;2022-08-19T06:26:32;20.30;;;18.17;;
28862;SDS011;15994;51.796;13.006;2022-08-19T06:29:00;20.10;;;18.20;;
28862;SDS011;15994;51.796;13.006;2022-08-19T06:31:28;20.90;;;18.80;;
28862;SDS011;15994;51.796;13.006;2022-08-19T06:33:56;20.08;;;18.17;;
28862;SDS011;15994;51.796;13.006;2022-08-19T06:36:26;19.92;;;17.98;;
28862;SDS011;15994;51.796;13.006;2022-08-19T06:38:56;18.80;;;16.70;;
28862;SDS011;15994;51.796;13.006;2022-08-19T06:41:27;19.77;;;17.88;;
28862;SDS011;15994;51.796;13.006;2022-08-19T06:43:54;20.13;;;17.92;;
28862;SDS011;15994;51.796;13.006;2022-08-19T06:46:21;20.80;;;18.67;;
28862;SDS011;15994;51.796;13.006;2022-08-19T06:48:48;19.95;;;17.85;;
28862;SDS011;15994;51.796;13.006;2022-08-19T06:51:18;19.50;;;17.60;;
28862;SDS011;15994;51.796;13.006;2022-08-19T06:53:45;18.50;;;16.67;;
28862;SDS011;15994;51.796;13.006;2022-08-19T06:56:13;18.48;;;16.67;;
28862;SDS011;15994;51.796;13.006;2022-08-19T06:58:42;18.60;;;16.80;;
28862;SDS011;15994;51.796;13.006;2022-08-19T07:01:09;18.95;;;17.05;;
28862;SDS011;15994;51.796;13.006;2022-08-19T07:03:36;18.48;;;16.67;;
28862;SDS011;15994;51.796;13.006;2022-08-19T07:08:33;19.08;;;17.17;;
28862;SDS011;15994;51.796;13.006;2022-08-19T07:11:01;21.33;;;18.23;;
28862;SDS011;15994;51.796;13.006;2022-08-19T07:13:31;19.08;;;17.23;;
28862;SDS011;15994;51.796;13.006;2022-08-19T07:16:04;18.95;;;17.17;;
28862;SDS011;15994;51.796;13.006;2022-08-19T07:18:33;17.92;;;16.08;;
28862;SDS011;15994;51.796;13.006;2022-08-19T07:21:07;18.38;;;16.00;;
28862;SDS011;15994;51.796;13.006;2022-08-19T07:26:06;17.42;;;15.63;;
28862;SDS011;15994;51.796;13.006;2022-08-19T07:28:34;18.45;;;16.63;;
28862;SDS011;15994;51.796;13.006;2022-08-19T07:31:03;19.33;;;17.45;;
28862;SDS011;15994;51.796;13.006;2022-08-19T07:33:31;17.45;;;15.65;;
28862;SDS011;15994;51.796;13.006;2022-08-19T07:36:01;17.13;;;15.52;;
28862;SDS011;15994;51.796;13.006;2022-08-19T07:38:31;17.40;;;15.75;;
28862;SDS011;15994;51.796;13.006;2022-08-19T07:40:58;16.98;;;15.38;;
28862;SDS011;15994;51.796;13.006;2022-08-19T07:43:25;16.30;;;14.77;;
28862;SDS011;15994;51.796;13.006;2022-08-19T07:45:52;16.33;;;14.73;;
28862;SDS011;15994;51.796;13.006;2022-08-19T07:48:21;16.58;;;14.88;;
28862;SDS011;15994;51.796;13.006;2022-08-19T07:50:50;16.92;;;15.20;;
28862;SDS011;15994;51.796;13.006;2022-08-19T07:53:26;18.60;;;16.45;;
28862;SDS011;15994;51.796;13.006;2022-08-19T07:55:54;18.65;;;16.85;;
28862;SDS011;15994;51.796;13.006;2022-08-19T07:58:23;19.80;;;17.80;;
28862;SDS011;15994;51.796;13.006;2022-08-19T08:00:50;20.50;;;18.45;;
28862;SDS011;15994;51.796;13.006;2022-08-19T08:03:17;20.00;;;17.95;;
28862;SDS011;15994;51.796;13.006;2022-08-19T08:06:06;19.48;;;17.58;;
28862;SDS011;15994;51.796;13.006;2022-08-19T08:08:50;20.27;;;18.08;;
28862;SDS011;15994;51.796;13.006;2022-08-19T08:11:34;20.02;;;17.83;;
28862;SDS011;15994;51.796;13.006;2022-08-19T08:14:01;20.52;;;18.58;;
28862;SDS011;15994;51.796;13.006;2022-08-19T08:16:29;20.52;;;18.55;;
28862;SDS011;15994;51.796;13.006;2022-08-19T08:18:56;20.50;;;18.33;;
28862;SDS011;15994;51.796;13.006;2022-08-19T08:21:23;21.08;;;18.95;;
28862;SDS011;15994;51.796;13.006;2022-08-19T08:23:49;22.33;;;20.10;;
28862;SDS011;15994;51.796;13.006;2022-08-19T08:26:17;23.52;;;21.02;;
28862;SDS011;15994;51.796;13.006;2022-08-19T08:28:43;23.23;;;20.60;;
28862;SDS011;15994;51.796;13.006;2022-08-19T08:31:12;23.65;;;21.13;;
28862;SDS011;15994;51.796;13.006;2022-08-19T08:33:39;22.00;;;19.63;;
28862;SDS011;15994;51.796;13.006;2022-08-19T08:36:07;24.92;;;22.33;;
28862;SDS011;15994;51.796;13.006;2022-08-19T08:38:35;25.50;;;22.83;;
28862;SDS011;15994;51.796;13.006;2022-08-19T08:41:08;25.55;;;22.85;;
28862;SDS011;15994;51.796;13.006;2022-08-19T08:43:54;26.40;;;23.83;;
28862;SDS011;15994;51.796;13.006;2022-08-19T08:49:36;25.98;;;23.38;;
28862;SDS011;15994;51.796;13.006;2022-08-19T08:52:11;27.42;;;24.33;;
28862;SDS011;15994;51.796;13.006;2022-08-19T08:54:54;26.33;;;23.83;;
28862;SDS011;15994;51.796;13.006;2022-08-19T08:57:26;26.23;;;23.63;;
28862;SDS011;15994;51.796;13.006;2022-08-19T09:00:04;27.08;;;24.33;;
28862;SDS011;15994;51.796;13.006;2022-08-19T09:02:34;26.65;;;23.95;;
28862;SDS011;15994;51.796;13.006;2022-08-19T09:05:00;27.08;;;24.35;;
28862;SDS011;15994;51.796;13.006;2022-08-19T09:07:38;27.23;;;24.42;;
28862;SDS011;15994;51.796;13.006;2022-08-19T09:10:44;28.48;;;25.33;;
28862;SDS011;15994;51.796;13.006;2022-08-19T09:16:22;27.75;;;24.83;;
28862;SDS011;15994;51.796;13.006;2022-08-19T09:18:52;28.58;;;25.77;;
28862;SDS011;15994;51.796;13.006;2022-08-19T09:21:23;29.75;;;26.75;;
28862;SDS011;15994;51.796;13.006;2022-08-19T09:23:50;30.67;;;27.23;;
28862;SDS011;15994;51.796;13.006;2022-08-19T09:26:19;30.77;;;27.67;;
28862;SDS011;15994;51.796;13.006;2022-08-19T09:28:48;32.05;;;28.67;;
28862;SDS011;15994;51.796;13.006;2022-08-19T09:31:18;30.95;;;27.15;;
28862;SDS011;15994;51.796;13.006;2022-08-19T09:33:52;29.88;;;26.88;;
28862;SDS011;15994;51.796;13.006;2022-08-19T09:36:22;27.75;;;23.95;;
28862;SDS011;15994;51.796;13.006;2022-08-19T09:38:51;28.85;;;25.83;;
28862;SDS011;15994;51.796;13.006;2022-08-19T09:41:19;30.48;;;27.17;;
28862;SDS011;15994;51.796;13.006;2022-08-19T09:43:50;29.25;;;26.08;;
28862;SDS011;15994;51.796;13.006;2022-08-19T09:46:19;27.90;;;24.95;;
28862;SDS011;15994;51.796;13.006;2022-08-19T09:48:46;28.38;;;25.48;;
28862;SDS011;15994;51.796;13.006;2022-08-19T09:51:16;30.20;;;26.98;;
28862;SDS011;15994;51.796;13.006;2022-08-19T09:53:46;31.08;;;26.77;;
28862;SDS011;15994;51.796;13.006;2022-08-19T09:56:15;28.40;;;25.50;;
28862;SDS011;15994;51.796;13.006;2022-08-19T09:58:42;34.38;;;28.92;;
28862;SDS011;15994;51.796;13.006;2022-08-19T10:01:09;31.27;;;27.98;;
28862;SDS011;15994;51.796;13.006;2022-08-19T10:03:41;32.80;;;29.20;;
28862;SDS011;15994;51.796;13.006;2022-08-19T10:06:07;33.25;;;28.80;;
28862;SDS011;15994;51.796;13.006;2022-08-19T10:08:35;33.15;;;28.55;;
28862;SDS011;15994;51.796;13.006;2022-08-19T10:11:04;32.80;;;29.30;;
28862;SDS011;15994;51.796;13.006;2022-08-19T10:13:31;32.58;;;29.08;;
28862;SDS011;15994;51.796;13.006;2022-08-19T10:16:11;32.47;;;28.98;;
28862;SDS011;15994;51.796;13.006;2022-08-19T10:18:40;30.48;;;27.23;;
28862;SDS011;15994;51.796;13.006;2022-08-19T10:21:16;33.45;;;26.85;;
28862;SDS011;15994;51.796;13.006;2022-08-19T10:26:16;28.30;;;24.58;;
28862;SDS011;15994;51.796;13.006;2022-08-19T10:28:45;25.63;;;22.98;;
28862;SDS011;15994;51.796;13.006;2022-08-19T10:31:14;27.23;;;23.63;;
28862;SDS011;15994;51.796;13.006;2022-08-19T10:33:44;25.55;;;22.83;;
28862;SDS011;15994;51.796;13.006;2022-08-19T10:36:12;23.67;;;21.17;;
28862;SDS011;15994;51.796;13.006;2022-08-19T10:38:42;25.17;;;22.58;;
28862;SDS011;15994;51.796;13.006;2022-08-19T10:41:32;25.45;;;22.70;;
28862;SDS011;15994;51.796;13.006;2022-08-19T10:44:00;24.52;;;22.00;;
28862;SDS011;15994;51.796;13.006;2022-08-19T10:46:29;24.33;;;21.83;;
28862;SDS011;15994;51.796;13.006;2022-08-19T10:48:58;24.05;;;21.48;;
28862;SDS011;15994;51.796;13.006;2022-08-19T10:51:26;24.15;;;21.65;;
28862;SDS011;15994;51.796;13.006;2022-08-19T10:54:10;23.02;;;20.15;;
28862;SDS011;15994;51.796;13.006;2022-08-19T10:56:37;22.45;;;20.25;;
28862;SDS011;15994;51.796;13.006;2022-08-19T10:59:19;22.70;;;20.15;;
28862;SDS011;15994;51.796;13.006;2022-08-19T11:01:54;21.35;;;19.23;;
28862;SDS011;15994;51.796;13.006;2022-08-19T11:04:25;23.80;;;19.95;;
28862;SDS011;15994;51.796;13.006;2022-08-19T11:06:51;24.48;;;21.95;;
28862;SDS011;15994;51.796;13.006;2022-08-19T11:09:19;28.33;;;25.23;;
28862;SDS011;15994;51.796;13.006;2022-08-19T11:11:49;27.25;;;24.35;;
28862;SDS011;15994;51.796;13.006;2022-08-19T11:14:16;28.17;;;25.17;;
28862;SDS011;15994;51.796;13.006;2022-08-19T11:16:45;28.25;;;25.13;;
28862;SDS011;15994;51.796;13.006;2022-08-19T11:19:15;29.58;;;25.15;;
28862;SDS011;15994;51.796;13.006;2022-08-19T11:21:45;27.83;;;23.80;;
28862;SDS011;15994;51.796;13.006;2022-08-19T11:24:14;25.92;;;22.45;;
28862;SDS011;15994;51.796;13.006;2022-08-19T11:26:43;28.95;;;25.85;;
28862;SDS011;15994;51.796;13.006;2022-08-19T11:29:11;26.50;;;22.95;;
28862;SDS011;15994;51.796;13.006;2022-08-19T11:31:39;24.80;;;22.17;;
28862;SDS011;15994;51.796;13.006;2022-08-19T11:34:09;24.73;;;20.58;;
28862;SDS011;15994;51.796;13.006;2022-08-19T11:36:38;23.27;;;20.88;;
28862;SDS011;15994;51.796;13.006;2022-08-19T11:39:09;25.02;;;22.17;;
28862;SDS011;15994;51.796;13.006;2022-08-19T11:41:38;24.02;;;21.45;;
28862;SDS011;15994;51.796;13.006;2022-08-19T11:44:06;24.95;;;22.23;;
28862;SDS011;15994;51.796;13.006;2022-08-19T11:46:33;27.10;;;22.30;;
28862;SDS011;15994;51.796;13.006;2022-08-19T11:49:03;24.15;;;21.55;;
28862;SDS011;15994;51.796;13.006;2022-08-19T11:51:34;23.33;;;20.63;;
28862;SDS011;15994;51.796;13.006;2022-08-19T11:54:00;23.65;;;20.15;;
28862;SDS011;15994;51.796;13.006;2022-08-19T11:56:28;22.85;;;20.42;;
28862;SDS011;15994;51.796;13.006;2022-08-19T11:58:54;23.90;;;21.00;;
28862;SDS011;15994;51.796;13.006;2022-08-19T12:01:23;21.63;;;19.25;;
28862;SDS011;15994;51.796;13.006;2022-08-19T12:03:51;23.58;;;20.80;;
28862;SDS011;15994;51.796;13.006;2022-08-19T12:06:20;25.42;;;22.75;;
28862;SDS011;15994;51.796;13.006;2022-08-19T12:08:50;27.25;;;22.92;;
28862;SDS011;15994;51.796;13.006;2022-08-19T12:11:18;26.00;;;21.88;;
28862;SDS011;15994;51.796;13.006;2022-08-19T12:13:45;26.40;;;21.98;;
28862;SDS011;15994;51.796;13.006;2022-08-19T12:16:14;26.35;;;22.50;;
28862;SDS011;15994;51.796;13.006;2022-08-19T12:18:42;27.52;;;21.30;;
28862;SDS011;15994;51.796;13.006;2022-08-19T12:21:11;25.35;;;22.20;;
28862;SDS011;15994;51.796;13.006;2022-08-19T12:23:42;24.35;;;21.77;;
28862;SDS011;15994;51.796;13.006;2022-08-19T12:26:10;25.40;;;21.50;;
28862;SDS011;15994;51.796;13.006;2022-08-19T12:28:37;26.13;;;23.05;;
28862;SDS011;15994;51.796;13.006;2022-08-19T12:31:04;24.58;;;21.90;;
28862;SDS011;15994;51.796;13.006;2022-08-19T12:33:31;22.25;;;19.85;;
28862;SDS011;15994;51.796;13.006;2022-08-19T12:36:04;22.20;;;20.00;;
28862;SDS011;15994;51.796;13.006;2022-08-19T12:38:33;23.27;;;20.80;;
28862;SDS011;15994;51.796;13.006;2022-08-19T12:41:00;20.65;;;18.50;;
28862;SDS011;15994;51.796;13.006;2022-08-19T12:43:28;21.15;;;18.90;;
28862;SDS011;15994;51.796;13.006;2022-08-19T12:45:55;20.83;;;18.13;;
28862;SDS011;15994;51.796;13.006;2022-08-19T12:48:21;19.38;;;17.27;;
28862;SDS011;15994;51.796;13.006;2022-08-19T12:50:48;19.42;;;17.45;;
28862;SDS011;15994;51.796;13.006;2022-08-19T12:53:14;19.75;;;17.75;;
28862;SDS011;15994;51.796;13.006;2022-08-19T12:55:41;19.15;;;17.33;;
28862;SDS011;15994;51.796;13.006;2022-08-19T12:58:08;20.42;;;18.33;;
28862;SDS011;15994;51.796;13.006;2022-08-19T13:00:37;20.15;;;17.98;;
28862;SDS011;15994;51.796;13.006;2022-08-19T13:03:04;18.42;;;16.63;;
28862;SDS011;15994;51.796;13.006;2022-08-19T13:05:31;19.17;;;17.23;;
28862;SDS011;15994;51.796;13.006;2022-08-19T13:07:59;19.02;;;16.73;;
28862;SDS011;15994;51.796;13.006;2022-08-19T13:10:28;19.35;;;17.25;;
28862;SDS011;15994;51.796;13.006;2022-08-19T13:12:56;19.38;;;17.48;;
28862;SDS011;15994;51.796;13.006;2022-08-19T13:15:24;18.73;;;16.92;;
28862;SDS011;15994;51.796;13.006;2022-08-19T13:17:53;19.00;;;16.98;;
28862;SDS011;15994;51.796;13.006;2022-08-19T13:20:20;18.50;;;16.55;;
28862;SDS011;15994;51.796;13.006;2022-08-19T13:22:48;17.13;;;15.43;;
28862;SDS011;15994;51.796;13.006;2022-08-19T13:25:15;16.90;;;15.27;;
28862;SDS011;15994;51.796;13.006;2022-08-19T13:27:44;18.27;;;16.48;;
28862;SDS011;15994;51.796;13.006;2022-08-19T13:30:11;16.55;;;14.85;;
28862;SDS011;15994;51.796;13.006;2022-08-19T13:32:57;18.02;;;16.13;;
28862;SDS011;15994;51.796;13.006;2022-08-19T13:35:43;16.48;;;14.52;;
28862;SDS011;15994;51.796;13.006;2022-08-19T13:38:12;14.82;;;13.32;;
28862;SDS011;15994;51.796;13.006;2022-08-19T13:40:41;15.63;;;14.20;;
28862;SDS011;15994;51.796;13.006;2022-08-19T13:43:08;16.52;;;14.93;;
28862;SDS011;15994;51.796;13.006;2022-08-19T13:45:35;15.85;;;14.32;;
28862;SDS011;15994;51.796;13.006;2022-08-19T13:48:06;17.10;;;15.40;;
28862;SDS011;15994;51.796;13.006;2022-08-19T13:50:34;17.92;;;14.43;;
28862;SDS011;15994;51.796;13.006;2022-08-19T13:53:05;16.40;;;14.80;;
28862;SDS011;15994;51.796;13.006;2022-08-19T13:55:32;16.00;;;14.40;;
28862;SDS011;15994;51.796;13.006;2022-08-19T13:57:59;16.70;;;15.00;;
28862;SDS011;15994;51.796;13.006;2022-08-19T14:00:27;16.60;;;14.38;;
28862;SDS011;15994;51.796;13.006;2022-08-19T14:02:55;17.70;;;15.80;;
28862;SDS011;15994;51.796;13.006;2022-08-19T14:05:24;19.42;;;15.00;;
28862;SDS011;15994;51.796;13.006;2022-08-19T14:07:51;16.35;;;14.35;;
28862;SDS011;15994;51.796;13.006;2022-08-19T14:10:18;15.48;;;13.98;;
28862;SDS011;15994;51.796;13.006;2022-08-19T14:12:46;17.02;;;15.07;;
28862;SDS011;15994;51.796;13.006;2022-08-19T14:15:13;17.85;;;15.95;;
28862;SDS011;15994;51.796;13.006;2022-08-19T14:17:41;18.25;;;15.82;;
28862;SDS011;15994;51.796;13.006;2022-08-19T14:20:11;17.73;;;15.80;;
28862;SDS011;15994;51.796;13.006;2022-08-19T14:22:41;18.08;;;16.15;;
28862;SDS011;15994;51.796;13.006;2022-08-19T14:25:09;17.77;;;16.00;;
28862;SDS011;15994;51.796;13.006;2022-08-19T14:27:38;17.88;;;16.13;;
28862;SDS011;15994;51.796;13.006;2022-08-19T14:30:06;18.50;;;16.60;;
28862;SDS011;15994;51.796;13.006;2022-08-19T14:32:34;17.45;;;15.70;;
28862;SDS011;15994;51.796;13.006;2022-08-19T14:35:02;17.35;;;15.60;;